Time;durP1;ratioP1;P1;durP2;ratioP2;P2;SDS_P1;SDS_P2;PMS_P1;PMS_P2;Temp;Humidity;BMP_temperature;BMP_pressure;BME280_temperature;BME280_humidity;BME280_pressure;Samples;Min_cycle;Max_cycle;Signal;HPM_P1;HPM_P2
2023/01/19 00:01:46;;;;;;;0.30;0.30;;;;;;;5.90;75.86;99926.91;4993264;28;20545;-74
2023/01/19 00:04:11;;;;;;;0.30;0.30;;;;;;;6.63;74.85;99927.03;4992805;28;20072;-72
2023/01/19 00:06:37;;;;;;;0.30;0.30;;;;;;;6.18;75.64;99929.13;4993319;28;20034;-72
2023/01/19 00:09:02;;;;;;;0.43;0.43;;;;;;;6.87;72.70;99928.84;4992952;28;20042;-73
2023/01/19 00:11:28;;;;;;;0.30;0.30;;;;;;;6.72;72.39;99915.84;4993109;28;20074;-73
2023/01/19 00:13:53;;;;;;;0.40;0.40;;;;;;;6.38;74.44;99929.78;4992457;28;20040;-73
2023/01/19 00:16:21;;;;;;;0.30;0.30;;;;;;;6.18;74.93;99929.97;4993019;28;20117;-72
2023/01/19 00:18:49;;;;;;;0.30;0.30;;;;;;;6.69;73.76;99927.00;4993094;28;20142;-72
2023/01/19 00:21:14;;;;;;;0.40;0.40;;;;;;;6.26;74.60;99920.03;4992277;28;20061;-72
2023/01/19 00:23:41;;;;;;;0.30;0.30;;;;;;;6.06;74.88;99920.22;4992473;28;20054;-71
2023/01/19 00:26:07;;;;;;;0.22;0.22;;;;;;;6.13;75.55;99921.00;4992521;28;20023;-73
2023/01/19 00:28:33;;;;;;;0.30;0.30;;;;;;;5.90;75.17;99926.91;4992021;28;20104;-73
2023/01/19 00:30:58;;;;;;;0.20;0.20;;;;;;;6.46;74.18;99918.81;4992672;28;20022;-72
2023/01/19 00:33:23;;;;;;;0.30;0.30;;;;;;;6.70;73.21;99917.94;4992482;28;20038;-72
2023/01/19 00:35:55;;;;;;;0.40;0.40;;;;;;;6.48;73.79;99927.44;4992212;28;20044;-72
2023/01/19 00:38:21;;;;;;;0.30;0.30;;;;;;;6.18;75.93;99924.63;4984551;28;20039;-72
2023/01/19 00:40:47;;;;;;;0.35;0.35;;;;;;;6.08;76.33;99920.81;4973035;28;20045;-73
2023/01/19 00:43:13;;;;;;;0.28;0.28;;;;;;;5.86;77.33;99925.72;4972818;28;20123;-72
2023/01/19 00:45:38;;;;;;;0.28;0.28;;;;;;;5.87;77.20;99931.88;4973756;28;20121;-73
2023/01/19 00:48:04;;;;;;;0.30;0.30;;;;;;;6.39;74.89;99926.06;4972671;28;20038;-71
2023/01/19 00:50:31;;;;;;;0.40;0.40;;;;;;;6.05;77.21;99932.72;4990474;28;20069;-71
2023/01/19 00:52:59;;;;;;;0.30;0.30;;;;;;;6.61;74.40;99934.47;4992016;28;20566;-71
2023/01/19 00:55:27;;;;;;;0.20;0.20;;;;;;;6.60;74.22;99919.50;4992170;28;20037;-71
2023/01/19 00:57:52;;;;;;;0.30;0.30;;;;;;;6.68;73.90;99921.88;4992352;28;20038;-72
2023/01/19 01:00:18;;;;;;;0.20;0.20;;;;;;;6.53;74.22;99932.91;4992097;28;20425;-71
2023/01/19 01:02:44;;;;;;;0.40;0.40;;;;;;;6.87;73.79;99920.81;4992006;28;20038;-73
2023/01/19 01:05:11;;;;;;;0.50;0.50;;;;;;;6.05;76.10;99927.41;4991927;28;20097;-72
2023/01/19 01:07:40;;;;;;;0.40;0.40;;;;;;;6.63;76.03;99922.53;4990627;28;20062;-71
2023/01/19 01:10:19;;;;;;;0.40;0.40;;;;;;;7.09;73.96;99930.00;4992629;28;20552;-70
2023/01/19 01:12:46;;;;;;;0.30;0.30;;;;;;;7.07;72.98;99932.91;4992056;28;20061;-71
2023/01/19 01:15:13;;;;;;;0.38;0.38;;;;;;;6.87;73.67;99931.50;4991692;28;20038;-71
2023/01/19 01:17:46;;;;;;;0.40;0.40;;;;;;;6.90;74.71;99937.22;4991993;28;20406;-71
2023/01/19 01:20:17;;;;;;;0.30;0.30;;;;;;;6.69;75.15;99935.00;4991804;28;20059;-71
2023/01/19 01:22:45;;;;;;;0.30;0.30;;;;;;;6.97;74.11;99927.28;4991984;28;20034;-71
2023/01/19 01:25:13;;;;;;;0.40;0.40;;;;;;;6.73;74.84;99925.50;4992193;28;20052;-72
2023/01/19 01:27:38;;;;;;;0.40;0.40;;;;;;;6.79;73.76;99929.97;4991817;28;20019;-72
2023/01/19 01:30:05;;;;;;;0.40;0.40;;;;;;;6.49;75.52;99930.88;4991578;28;20034;-72
2023/01/19 01:32:30;;;;;;;0.40;0.40;;;;;;;6.64;75.36;99920.69;4991388;28;20035;-73
2023/01/19 01:34:55;;;;;;;0.38;0.38;;;;;;;6.89;74.29;99929.44;4990975;28;20061;-70
2023/01/19 01:37:21;;;;;;;0.35;0.35;;;;;;;6.66;74.97;99922.06;4991555;28;20100;-71
2023/01/19 01:39:46;;;;;;;0.38;0.38;;;;;;;7.10;73.92;99929.78;4991775;28;20034;-70
2023/01/19 01:42:17;;;;;;;0.22;0.22;;;;;;;7.23;72.22;99928.81;4991907;28;20046;-70
2023/01/19 01:44:49;;;;;;;0.20;0.20;;;;;;;6.99;73.74;99932.41;4995256;28;20125;-71
2023/01/19 01:47:20;;;;;;;0.40;0.40;;;;;;;6.80;74.49;99933.44;4995427;28;20045;-71
2023/01/19 01:49:46;;;;;;;0.30;0.30;;;;;;;7.06;74.17;99943.81;4994889;28;20093;-69
2023/01/19 01:52:14;;;;;;;0.30;0.30;;;;;;;6.98;74.57;99938.75;4995276;28;20096;-69
2023/01/19 01:54:41;;;;;;;0.30;0.30;;;;;;;6.95;73.74;99937.38;4994500;28;20030;-70
2023/01/19 01:57:11;;;;;;;0.35;0.35;;;;;;;6.52;75.87;99941.97;4995102;28;20057;-70
2023/01/19 01:59:44;;;;;;;0.33;0.33;;;;;;;6.52;76.06;99941.13;4995437;28;20034;-71
2023/01/19 02:05:06;;;;;;;0.30;0.30;;;;;;;7.26;73.19;99944.38;4995404;28;20037;-70
2023/01/19 02:13:37;;;;;;;0.25;0.25;;;;;;;7.34;73.20;99928.03;4972837;28;20135;-69
2023/01/19 02:16:06;;;;;;;0.40;0.40;;;;;;;7.26;72.86;99935.53;4972811;28;20157;-72
2023/01/19 02:18:33;;;;;;;0.35;0.35;;;;;;;7.00;73.87;99945.50;4973388;28;20031;-70
2023/01/19 02:21:06;;;;;;;0.35;0.35;;;;;;;7.03;74.20;99942.41;4972678;28;20049;-72
2023/01/19 02:23:44;;;;;;;0.30;0.30;;;;;;;6.99;74.53;99946.56;4972572;28;20141;-71
2023/01/19 02:26:16;;;;;;;0.30;0.30;;;;;;;7.05;73.77;99945.69;4972715;28;20031;-71
2023/01/19 02:28:49;;;;;;;0.20;0.20;;;;;;;6.73;75.03;99954.88;4972175;28;20042;-72
2023/01/19 02:31:16;;;;;;;0.32;0.32;;;;;;;7.33;72.92;99947.75;4974495;28;20057;-71
2023/01/19 02:33:41;;;;;;;0.40;0.40;;;;;;;6.42;74.83;99948.81;4973131;28;20062;-71
2023/01/19 02:36:09;;;;;;;0.30;0.30;;;;;;;6.88;74.68;99946.47;4972615;28;20042;-70
2023/01/19 02:38:37;;;;;;;0.30;0.30;;;;;;;6.33;75.87;99944.81;4972764;28;20047;-71
2023/01/19 02:41:05;;;;;;;0.30;0.30;;;;;;;6.54;75.34;99933.72;4972385;28;20096;-70
2023/01/19 02:43:31;;;;;;;0.30;0.30;;;;;;;6.51;75.64;99936.81;4972174;28;20535;-71
2023/01/19 02:45:57;;;;;;;0.20;0.20;;;;;;;6.89;73.64;99940.13;4975537;28;20396;-71
2023/01/19 02:48:22;;;;;;;0.30;0.30;;;;;;;7.49;71.57;99941.78;4993804;28;20045;-71
2023/01/19 02:50:59;;;;;;;0.20;0.20;;;;;;;6.68;74.26;99941.34;4994546;28;20054;-72
2023/01/19 02:53:39;;;;;;;0.30;0.30;;;;;;;6.95;73.46;99948.06;4993179;28;20512;-71
2023/01/19 02:56:11;;;;;;;0.38;0.38;;;;;;;6.69;75.97;99939.50;4994735;28;20026;-70
2023/01/19 02:58:48;;;;;;;0.25;0.25;;;;;;;6.93;74.10;99947.47;4994073;28;20459;-73
2023/01/19 03:01:40;;;;;;;0.30;0.30;;;;;;;6.39;76.34;99949.28;4994268;28;20038;-72
2023/01/19 03:04:32;;;;;;;0.20;0.20;;;;;;;6.44;75.97;99960.94;4993691;28;20486;-71
2023/01/19 03:07:09;;;;;;;0.30;0.30;;;;;;;6.68;75.02;99954.69;4994221;28;20190;-70
2023/01/19 03:09:58;;;;;;;0.30;0.30;;;;;;;6.42;76.32;99949.66;4993952;28;20056;-70
2023/01/19 03:12:45;;;;;;;0.30;0.30;;;;;;;6.41;76.47;99960.56;4993630;28;20474;-70
2023/01/19 03:15:29;;;;;;;0.30;0.30;;;;;;;6.30;76.90;99953.25;4993852;28;20044;-73
2023/01/19 03:17:59;;;;;;;0.30;0.30;;;;;;;6.20;76.32;99949.25;4993261;28;20045;-71
2023/01/19 03:20:27;;;;;;;0.22;0.22;;;;;;;6.36;76.80;99957.72;4994062;28;20062;-70
2023/01/19 03:22:59;;;;;;;0.30;0.30;;;;;;;6.41;75.51;99949.88;4993620;28;20042;-69
2023/01/19 03:25:25;;;;;;;0.40;0.40;;;;;;;6.53;74.99;99954.25;4993632;28;20045;-71
2023/01/19 03:27:52;;;;;;;0.50;0.50;;;;;;;6.64;76.33;99952.72;4980609;28;20555;-72
2023/01/19 03:30:26;;;;;;;0.25;0.25;;;;;;;6.86;74.69;99946.72;4974222;28;20404;-70
2023/01/19 03:33:03;;;;;;;0.32;0.32;;;;;;;7.23;74.02;99954.69;4973954;28;20094;-71
2023/01/19 03:35:34;;;;;;;0.38;0.38;;;;;;;7.17;73.15;99944.91;4974054;28;20039;-70
2023/01/19 03:38:05;;;;;;;0.30;0.30;;;;;;;7.27;72.83;99958.56;4973939;28;20031;-72
2023/01/19 03:40:32;;;;;;;0.38;0.38;;;;;;;7.90;70.54;99955.16;4973981;28;20463;-71
2023/01/19 03:42:59;;;;;;;0.30;0.30;;;;;;;7.42;71.62;99951.78;4989134;28;20491;-71
2023/01/19 03:45:26;;;;;;;0.30;0.30;;;;;;;7.98;70.82;99956.69;4974442;28;20051;-73
2023/01/19 03:47:53;;;;;;;0.40;0.40;;;;;;;8.01;70.30;99950.91;4973691;28;20066;-70
2023/01/19 03:50:27;;;;;;;0.40;0.40;;;;;;;8.26;70.12;99958.75;4991692;28;20042;-70
2023/01/19 03:53:19;;;;;;;0.38;0.38;;;;;;;8.43;69.47;99959.69;4993159;28;20493;-70
2023/01/19 03:55:47;;;;;;;0.30;0.30;;;;;;;8.17;71.05;99962.78;4990469;28;20038;-72
2023/01/19 03:58:12;;;;;;;0.30;0.30;;;;;;;8.55;68.90;99969.34;4992930;28;20034;-72
2023/01/19 04:00:38;;;;;;;0.55;0.55;;;;;;;7.71;74.09;99975.00;4993360;28;20022;-71
2023/01/19 04:03:05;;;;;;;0.30;0.30;;;;;;;8.19;72.00;99968.72;4991688;28;20093;-71
2023/01/19 04:05:32;;;;;;;0.35;0.35;;;;;;;8.62;71.41;99971.91;4992694;28;20229;-71
2023/01/19 04:07:57;;;;;;;0.40;0.40;;;;;;;9.17;67.90;99965.09;4992868;28;20473;-70
2023/01/19 04:10:23;;;;;;;0.30;0.30;;;;;;;8.71;70.01;99962.47;4992814;28;20118;-70
2023/01/19 04:12:49;;;;;;;0.40;0.40;;;;;;;9.79;67.65;99967.88;4993126;28;20048;-70
2023/01/19 04:15:15;;;;;;;0.30;0.30;;;;;;;8.80;70.07;99974.47;4992451;28;20045;-72
2023/01/19 04:17:40;;;;;;;0.40;0.40;;;;;;;8.88;70.99;99968.75;4975968;28;20023;-72
2023/01/19 04:20:07;;;;;;;0.30;0.30;;;;;;;8.36;72.60;99980.41;4973284;28;20089;-70
2023/01/19 04:22:32;;;;;;;0.32;0.32;;;;;;;8.75;70.96;99982.38;4977739;28;20030;-71
2023/01/19 04:24:58;;;;;;;0.30;0.30;;;;;;;8.92;70.44;99972.59;4973629;28;20080;-72
2023/01/19 04:27:24;;;;;;;0.30;0.30;;;;;;;8.13;72.39;99981.16;4972722;28;20529;-70
2023/01/19 04:29:50;;;;;;;0.30;0.30;;;;;;;8.48;72.06;99975.88;4972780;28;20038;-72
2023/01/19 04:32:15;;;;;;;0.30;0.30;;;;;;;8.64;73.05;99986.72;4973069;28;20027;-71
2023/01/19 04:34:41;;;;;;;0.38;0.38;;;;;;;8.06;73.97;99979.66;4972758;28;20035;-70
2023/01/19 04:37:07;;;;;;;0.30;0.30;;;;;;;8.97;71.68;99979.91;4972727;28;20062;-71
2023/01/19 04:39:33;;;;;;;0.40;0.40;;;;;;;8.83;72.40;99982.03;4972172;28;20042;-70
2023/01/19 04:41:59;;;;;;;0.30;0.30;;;;;;;9.13;71.29;99989.91;4972423;28;20046;-71
2023/01/19 04:44:26;;;;;;;0.40;0.40;;;;;;;9.03;71.92;99987.81;4992717;28;20070;-71
2023/01/19 04:46:51;;;;;;;0.60;0.60;;;;;;;8.73;73.02;99995.19;4992262;28;20042;-70
2023/01/19 04:49:16;;;;;;;0.32;0.32;;;;;;;9.10;70.49;100001.91;4991804;28;20056;-71
2023/01/19 04:51:42;;;;;;;0.43;0.43;;;;;;;9.03;70.95;100006.59;4992502;28;20581;-70
2023/01/19 04:54:08;;;;;;;0.38;0.38;;;;;;;8.88;71.68;100014.31;4973231;28;20058;-72
2023/01/19 04:56:33;;;;;;;0.60;0.60;;;;;;;9.22;72.22;100015.31;4972438;28;20058;-70
2023/01/19 04:58:59;;;;;;;0.40;0.40;;;;;;;9.25;71.12;100012.13;4972280;28;20333;-70
2023/01/19 05:01:24;;;;;;;0.30;0.30;;;;;;;9.44;70.67;100013.59;4975085;28;20121;-70
2023/01/19 05:03:50;;;;;;;0.40;0.40;;;;;;;9.05;71.58;100017.06;4991679;28;20030;-69
2023/01/19 05:06:15;;;;;;;0.30;0.30;;;;;;;8.49;72.86;100023.03;4991036;28;20042;-70
2023/01/19 05:08:41;;;;;;;0.50;0.50;;;;;;;9.79;69.10;100018.84;4990820;28;20042;-70
2023/01/19 05:11:06;;;;;;;0.38;0.38;;;;;;;9.77;69.06;100023.66;4991095;28;20041;-69
2023/01/19 05:13:32;;;;;;;0.40;0.40;;;;;;;9.38;70.26;100020.72;4984326;28;20049;-71
2023/01/19 05:15:57;;;;;;;0.38;0.38;;;;;;;9.43;70.01;100026.22;4991637;28;20061;-70
2023/01/19 05:18:23;;;;;;;0.50;0.50;;;;;;;9.24;70.64;100034.63;4992453;28;20503;-73
2023/01/19 05:20:48;;;;;;;0.60;0.60;;;;;;;9.06;71.51;100046.28;4972726;28;20377;-71
2023/01/19 05:23:13;;;;;;;0.40;0.40;;;;;;;9.21;70.98;100037.78;4972286;28;20113;-71
2023/01/19 05:25:39;;;;;;;0.43;0.43;;;;;;;9.09;71.80;100042.34;4972293;28;20035;-70
2023/01/19 05:28:04;;;;;;;0.40;0.40;;;;;;;8.77;72.85;100049.94;4972414;28;20045;-70
2023/01/19 05:30:30;;;;;;;0.55;0.55;;;;;;;9.03;71.75;100054.00;4972338;28;20484;-71
2023/01/19 05:32:55;;;;;;;0.45;0.45;;;;;;;9.03;71.02;100054.00;4986898;28;20038;-71
2023/01/19 05:35:20;;;;;;;0.40;0.40;;;;;;;9.03;71.12;100057.50;4972176;28;20054;-71
2023/01/19 05:37:46;;;;;;;0.38;0.38;;;;;;;8.58;73.75;100067.16;4972246;28;20035;-70
2023/01/19 05:40:11;;;;;;;0.50;0.50;;;;;;;7.93;74.83;100067.06;4972205;28;20066;-71
2023/01/19 05:42:37;;;;;;;0.50;0.50;;;;;;;8.02;76.35;100072.09;4972731;28;20115;-70
2023/01/19 05:45:04;;;;;;;0.38;0.38;;;;;;;8.75;73.44;100074.28;4971803;28;20054;-70
2023/01/19 05:47:30;;;;;;;0.38;0.38;;;;;;;8.55;73.20;100092.53;4980733;28;20043;-70
2023/01/19 05:49:56;;;;;;;0.20;0.20;;;;;;;8.07;74.48;100085.59;4982096;28;20086;-69
2023/01/19 05:52:21;;;;;;;0.30;0.30;;;;;;;8.24;73.32;100084.72;4985459;28;20120;-70
2023/01/19 05:54:47;;;;;;;0.40;0.40;;;;;;;8.99;70.32;100085.00;4987067;28;20034;-70
2023/01/19 05:57:13;;;;;;;0.35;0.35;;;;;;;9.24;69.76;100090.91;4984061;28;20042;-70
2023/01/19 05:59:39;;;;;;;0.25;0.25;;;;;;;9.11;70.77;100089.31;4987795;28;20058;-71
2023/01/19 06:02:05;;;;;;;0.20;0.20;;;;;;;9.27;70.64;100090.47;4985177;28;20041;-69
2023/01/19 06:04:30;;;;;;;0.20;0.20;;;;;;;9.17;70.26;100091.06;4987011;28;20038;-69
2023/01/19 06:06:56;;;;;;;0.40;0.40;;;;;;;9.06;71.63;100107.16;4991273;28;20026;-72
2023/01/19 06:09:21;;;;;;;0.30;0.30;;;;;;;9.07;71.49;100111.44;4988814;28;20394;-70
2023/01/19 06:11:47;;;;;;;0.35;0.35;;;;;;;9.28;70.79;100117.03;4988179;28;20117;-71
2023/01/19 06:14:12;;;;;;;0.40;0.40;;;;;;;8.84;71.22;100118.41;4990774;28;20046;-72
2023/01/19 06:16:38;;;;;;;0.30;0.30;;;;;;;9.27;69.41;100128.81;4980106;28;20035;-70
2023/01/19 06:19:03;;;;;;;0.30;0.30;;;;;;;9.40;70.63;100115.16;4971929;28;20050;-70
2023/01/19 06:21:29;;;;;;;0.50;0.50;;;;;;;8.88;71.36;100124.94;4987391;28;20050;-71
2023/01/19 06:23:54;;;;;;;0.43;0.43;;;;;;;8.66;72.73;100128.41;4971502;28;20046;-71
2023/01/19 06:26:20;;;;;;;0.40;0.40;;;;;;;9.38;70.45;100136.03;4984326;28;20058;-71
2023/01/19 06:28:47;;;;;;;0.50;0.50;;;;;;;8.78;70.72;100137.28;4988971;28;20049;-69
2023/01/19 06:31:13;;;;;;;0.28;0.28;;;;;;;8.80;70.95;100154.75;4988691;28;20026;-69
2023/01/19 06:33:38;;;;;;;0.30;0.30;;;;;;;8.70;71.69;100159.88;4989810;28;20018;-71
2023/01/19 06:36:04;;;;;;;0.28;0.28;;;;;;;9.03;69.95;100162.00;4990676;28;20129;-70
2023/01/19 06:38:31;;;;;;;0.40;0.40;;;;;;;8.56;71.75;100161.13;4994300;28;20495;-71
2023/01/19 06:41:02;;;;;;;0.40;0.40;;;;;;;8.80;72.45;100168.13;4992269;28;20034;-70
2023/01/19 06:43:28;;;;;;;0.40;0.40;;;;;;;7.93;75.59;100173.25;4992702;28;20030;-68
2023/01/19 06:45:53;;;;;;;0.60;0.60;;;;;;;8.09;74.64;100174.50;4990955;28;20049;-70
2023/01/19 06:48:19;;;;;;;0.60;0.60;;;;;;;8.79;71.06;100177.22;4992583;28;20052;-70
2023/01/19 06:50:45;;;;;;;0.35;0.35;;;;;;;8.76;72.30;100168.84;4992950;28;20463;-72
2023/01/19 06:53:11;;;;;;;0.47;0.47;;;;;;;8.84;71.33;100181.91;4993633;28;20037;-74
2023/01/19 06:55:38;;;;;;;0.32;0.32;;;;;;;8.75;73.00;100185.94;4993551;28;20030;-72
2023/01/19 06:58:03;;;;;;;0.40;0.40;;;;;;;9.42;69.56;100180.09;4993897;28;20084;-71
2023/01/19 07:00:29;;;;;;;0.32;0.32;;;;;;;8.99;70.47;100184.97;4993154;28;20378;-71
2023/01/19 07:02:55;;;;;;;0.40;0.40;;;;;;;9.37;69.42;100197.94;4993761;28;20038;-71
2023/01/19 07:05:21;;;;;;;0.38;0.38;;;;;;;9.34;69.66;100209.09;4986015;28;20169;-71
2023/01/19 07:07:51;;;;;;;0.32;0.32;;;;;;;10.25;66.79;100209.28;4974476;28;20046;-72
2023/01/19 07:10:16;;;;;;;0.32;0.32;;;;;;;10.34;66.27;100213.19;4975029;28;20065;-72
2023/01/19 07:12:43;;;;;;;0.30;0.30;;;;;;;10.59;64.71;100219.09;4993436;28;20084;-70
2023/01/19 07:15:10;;;;;;;0.60;0.60;;;;;;;10.35;65.29;100220.22;4993418;28;20089;-71
2023/01/19 07:17:35;;;;;;;0.40;0.40;;;;;;;11.15;62.52;100223.56;4993342;28;20026;-71
2023/01/19 07:20:03;;;;;;;0.40;0.40;;;;;;;11.03;63.13;100230.88;4993901;28;20053;-70
2023/01/19 07:22:28;;;;;;;0.50;0.50;;;;;;;11.10;63.06;100231.53;4992068;28;20100;-71
2023/01/19 07:24:54;;;;;;;0.40;0.40;;;;;;;10.28;65.84;100244.50;4994218;28;20483;-69
2023/01/19 07:27:19;;;;;;;0.40;0.40;;;;;;;10.96;62.54;100235.59;4993958;28;20499;-70
2023/01/19 07:29:45;;;;;;;0.40;0.40;;;;;;;10.76;63.28;100246.81;4993598;28;20058;-73
2023/01/19 07:32:10;;;;;;;0.32;0.32;;;;;;;10.74;64.33;100250.78;4993655;28;20053;-70
2023/01/19 07:34:35;;;;;;;0.40;0.40;;;;;;;10.55;64.19;100250.97;4993620;28;20038;-70
2023/01/19 07:37:01;;;;;;;0.40;0.40;;;;;;;10.61;64.18;100255.38;4993632;28;20041;-71
2023/01/19 07:39:27;;;;;;;0.35;0.35;;;;;;;10.02;64.64;100265.69;4993400;28;20045;-72
2023/01/19 07:41:52;;;;;;;0.35;0.35;;;;;;;9.69;66.20;100256.34;4992868;28;20042;-70
2023/01/19 07:44:17;;;;;;;0.47;0.47;;;;;;;9.53;66.36;100272.34;4993543;28;20049;-72
2023/01/19 07:46:43;;;;;;;0.40;0.40;;;;;;;9.56;67.01;100272.69;4993004;28;20399;-71
2023/01/19 07:49:08;;;;;;;0.30;0.30;;;;;;;9.36;66.57;100277.56;4991306;28;20078;-70
2023/01/19 07:51:35;;;;;;;0.40;0.40;;;;;;;10.22;64.26;100276.88;4993713;28;20057;-71
2023/01/19 07:54:00;;;;;;;0.40;0.40;;;;;;;9.85;65.24;100291.59;4993007;28;20070;-70
2023/01/19 07:56:28;;;;;;;0.47;0.47;;;;;;;9.96;64.16;100299.66;4993024;28;20038;-69
2023/01/19 07:58:54;;;;;;;0.50;0.50;;;;;;;9.94;64.64;100304.44;4992931;28;20038;-70
2023/01/19 08:01:19;;;;;;;0.50;0.50;;;;;;;10.12;63.63;100309.69;4992896;28;20502;-71
2023/01/19 08:03:46;;;;;;;0.30;0.30;;;;;;;10.08;64.19;100321.09;4993699;28;20030;-71
2023/01/19 08:06:19;;;;;;;0.30;0.30;;;;;;;10.04;63.68;100333.34;4993057;28;20038;-69
2023/01/19 08:08:45;;;;;;;0.30;0.30;;;;;;;9.66;64.79;100320.38;4995340;28;20043;-70
2023/01/19 08:11:10;;;;;;;0.40;0.40;;;;;;;9.54;65.40;100328.44;4992988;28;20057;-70
2023/01/19 08:13:35;;;;;;;0.50;0.50;;;;;;;10.25;62.75;100324.72;4993066;28;20409;-70
2023/01/19 08:16:01;;;;;;;0.35;0.35;;;;;;;10.20;62.19;100328.13;4993031;28;20057;-70
2023/01/19 08:18:26;;;;;;;0.40;0.40;;;;;;;10.02;63.39;100328.22;4993353;28;20033;-72
2023/01/19 08:20:51;;;;;;;0.30;0.30;;;;;;;10.04;62.91;100338.72;4991792;28;20538;-69
2023/01/19 08:23:17;;;;;;;0.50;0.50;;;;;;;9.83;63.66;100336.63;4992967;28;20042;-70
2023/01/19 08:25:44;;;;;;;0.40;0.40;;;;;;;10.12;62.30;100346.47;4992769;28;20565;-71
2023/01/19 08:28:11;;;;;;;0.30;0.30;;;;;;;9.21;65.11;100357.59;4991079;28;20402;-70
2023/01/19 08:30:37;;;;;;;0.20;0.20;;;;;;;9.28;64.33;100352.13;4993046;28;20114;-72
2023/01/19 08:33:03;;;;;;;0.35;0.35;;;;;;;9.77;63.53;100350.97;4992264;28;20137;-70
2023/01/19 08:35:30;;;;;;;0.40;0.40;;;;;;;9.45;64.78;100361.97;4992503;28;20041;-69
2023/01/19 08:37:59;;;;;;;0.50;0.50;;;;;;;9.45;63.65;100367.34;4992139;28;20050;-71
2023/01/19 08:40:25;;;;;;;0.52;0.52;;;;;;;8.68;67.20;100367.38;4992723;28;20026;-70
2023/01/19 08:42:50;;;;;;;0.50;0.50;;;;;;;8.14;68.99;100383.38;4992586;28;20040;-71
2023/01/19 08:45:16;;;;;;;0.35;0.35;;;;;;;8.39;69.57;100382.31;4991866;28;20042;-70
2023/01/19 08:47:41;;;;;;;0.40;0.40;;;;;;;8.77;68.54;100387.44;4974201;28;20122;-70
2023/01/19 08:50:07;;;;;;;0.43;0.43;;;;;;;8.54;68.35;100392.66;4988661;28;20050;-70
2023/01/19 08:52:33;;;;;;;0.30;0.30;;;;;;;8.29;69.54;100391.91;4991942;28;20041;-69
2023/01/19 08:54:58;;;;;;;0.35;0.35;;;;;;;8.49;69.62;100384.50;4992739;28;20382;-70
2023/01/19 08:57:25;;;;;;;0.45;0.45;;;;;;;9.65;65.93;100377.78;5005623;28;20072;-70
2023/01/19 08:59:51;;;;;;;0.38;0.38;;;;;;;10.15;63.60;100383.56;4992212;28;20279;-70
2023/01/19 09:02:16;;;;;;;0.38;0.38;;;;;;;10.62;62.27;100385.16;4990900;28;20027;-71
2023/01/19 09:04:41;;;;;;;0.55;0.55;;;;;;;10.58;62.91;100386.69;4991657;28;20129;-69
2023/01/19 09:07:07;;;;;;;0.40;0.40;;;;;;;10.96;60.88;100386.97;4991740;28;20116;-71
2023/01/19 09:09:32;;;;;;;0.40;0.40;;;;;;;10.65;62.86;100397.31;4992241;28;20066;-70
2023/01/19 09:11:57;;;;;;;0.50;0.50;;;;;;;10.84;61.22;100398.78;4990609;28;20133;-73
2023/01/19 09:14:23;;;;;;;0.40;0.40;;;;;;;10.00;63.61;100404.66;4991594;28;20050;-71
2023/01/19 09:16:48;;;;;;;0.45;0.45;;;;;;;10.10;62.72;100408.41;4991245;28;20058;-69
2023/01/19 09:19:13;;;;;;;0.30;0.30;;;;;;;10.77;61.20;100406.19;4991602;28;20034;-70
2023/01/19 09:21:39;;;;;;;0.40;0.40;;;;;;;10.33;61.77;100411.13;4992153;28;20098;-70
2023/01/19 09:24:04;;;;;;;0.50;0.50;;;;;;;10.09;62.75;100422.88;4991761;28;20193;-70
2023/01/19 09:26:30;;;;;;;0.30;0.30;;;;;;;10.47;61.17;100415.22;4991554;28;20518;-69
2023/01/19 09:28:55;;;;;;;0.40;0.40;;;;;;;10.59;61.59;100429.44;4991532;28;20125;-69
2023/01/19 09:31:21;;;;;;;0.40;0.40;;;;;;;10.38;62.25;100427.34;4991416;28;20042;-70
2023/01/19 09:33:46;;;;;;;0.40;0.40;;;;;;;10.14;63.00;100430.28;4992035;28;20033;-72
2023/01/19 09:36:12;;;;;;;0.32;0.32;;;;;;;10.24;62.12;100435.91;4991399;28;20096;-69
2023/01/19 09:38:37;;;;;;;0.40;0.40;;;;;;;9.52;63.89;100437.81;4990270;28;20751;-69
2023/01/19 09:41:08;;;;;;;0.43;0.43;;;;;;;9.31;64.38;100449.03;4991470;28;20406;-71
2023/01/19 09:43:49;;;;;;;0.50;0.50;;;;;;;9.17;64.68;100449.41;4989524;28;20092;-71
2023/01/19 09:46:37;;;;;;;;;;;;;;;9.72;63.49;100443.72;4991626;28;20038;-71
2023/01/19 09:49:10;;;;;;;0.50;0.50;;;;;;;9.65;62.94;100450.22;4990666;28;19917;-72
2023/01/19 09:51:40;;;;;;;0.45;0.45;;;;;;;9.64;63.45;100445.88;4992047;28;20049;-70
2023/01/19 09:54:12;;;;;;;0.70;0.70;;;;;;;10.23;61.54;100451.19;4991190;28;20065;-70
2023/01/19 09:56:38;;;;;;;0.50;0.50;;;;;;;9.95;61.88;100453.66;4991312;28;20039;-71
2023/01/19 09:59:27;;;;;;;0.60;0.60;;;;;;;10.62;60.58;100449.66;4991297;28;20037;-69
2023/01/19 10:01:59;;;;;;;0.40;0.40;;;;;;;10.19;60.93;100451.88;4989486;28;20046;-69
2023/01/19 10:04:40;;;;;;;0.70;0.70;;;;;;;10.61;59.88;100451.50;4993682;28;20057;-69
2023/01/19 10:07:20;;;;;;;;;;;;;;;10.25;61.64;100462.50;4994277;28;20100;-71
2023/01/19 10:10:18;;;;;;;0.30;0.30;;;;;;;9.96;63.16;100458.00;4995508;28;19914;-70
2023/01/19 10:13:09;;;;;;;0.47;0.47;;;;;;;10.05;62.48;100458.47;4995509;28;20042;-72
2023/01/19 10:15:59;;;;;;;0.50;0.50;;;;;;;9.95;63.89;100461.72;4995360;28;20042;-69
2023/01/19 10:18:39;;;;;;;0.40;0.40;;;;;;;10.43;61.76;100461.59;4994681;28;20487;-72
2023/01/19 10:21:13;;;;;;;0.35;0.35;;;;;;;10.06;63.73;100466.31;4994722;28;20054;-70
2023/01/19 10:23:44;;;;;;;0.60;0.60;;;;;;;10.09;64.11;100468.50;4994879;28;20038;-70
2023/01/19 10:26:18;;;;;;;0.22;0.22;;;;;;;10.25;63.19;100462.50;4994580;28;20030;-71
2023/01/19 10:28:47;;;;;;;0.57;0.57;;;;;;;9.67;63.89;100467.69;4994425;28;20050;-71
2023/01/19 10:31:14;;;;;;;0.35;0.35;;;;;;;10.13;63.26;100461.66;4994515;28;20044;-70
2023/01/19 10:33:39;;;;;;;0.20;0.20;;;;;;;10.23;61.69;100466.47;4995061;28;20406;-71
2023/01/19 10:36:16;;;;;;;0.47;0.47;;;;;;;10.07;63.33;100472.47;4994667;28;20041;-71
2023/01/19 10:38:41;;;;;;;0.20;0.20;;;;;;;10.15;62.71;100464.13;4994581;28;20562;-72
2023/01/19 10:41:13;;;;;;;0.30;0.30;;;;;;;10.56;61.29;100469.41;4994514;28;20034;-69
2023/01/19 10:43:43;;;;;;;0.47;0.47;;;;;;;10.31;61.30;100468.81;4979277;28;20384;-70
2023/01/19 10:46:20;;;;;;;0.50;0.50;;;;;;;11.02;60.29;100465.84;4974906;28;20137;-70
2023/01/19 10:48:48;;;;;;;0.40;0.40;;;;;;;11.08;59.06;100467.59;4980489;28;20031;-71
2023/01/19 10:51:13;;;;;;;0.52;0.52;;;;;;;10.36;61.69;100472.44;4994204;28;20097;-71
2023/01/19 10:53:42;;;;;;;0.40;0.40;;;;;;;10.95;60.14;100468.66;4994306;28;20034;-69
2023/01/19 10:56:31;;;;;;;0.40;0.40;;;;;;;10.25;61.71;100477.78;4994418;28;20091;-71
2023/01/19 10:58:58;;;;;;;0.50;0.50;;;;;;;11.24;58.43;100480.31;4974417;28;20038;-70
2023/01/19 11:01:27;;;;;;;0.50;0.50;;;;;;;10.44;61.33;100473.94;4974425;28;20492;-70
2023/01/19 11:03:54;;;;;;;0.47;0.47;;;;;;;10.17;61.68;100478.13;4974999;28;20561;-70
2023/01/19 11:06:25;;;;;;;0.60;0.60;;;;;;;10.80;59.29;100479.09;4974766;28;20081;-69
2023/01/19 11:08:52;;;;;;;0.30;0.30;;;;;;;10.98;58.37;100481.66;4974443;28;20031;-69
2023/01/19 11:11:19;;;;;;;0.40;0.40;;;;;;;10.57;60.12;100479.09;4974547;28;20031;-70
2023/01/19 11:14:03;;;;;;;0.32;0.32;;;;;;;11.35;58.67;100484.81;4974478;28;20199;-69
2023/01/19 11:16:33;;;;;;;0.40;0.40;;;;;;;10.10;60.33;100475.53;4986598;28;20038;-70
2023/01/19 11:19:00;;;;;;;0.30;0.30;;;;;;;10.55;58.67;100478.53;4994385;28;20037;-70
2023/01/19 11:21:28;;;;;;;0.60;0.60;;;;;;;10.75;58.54;100480.84;4994452;28;20045;-70
2023/01/19 11:23:57;;;;;;;0.75;0.60;;;;;;;10.33;58.56;100483.66;4993744;28;20042;-70
2023/01/19 11:26:46;;;;;;;0.47;0.47;;;;;;;10.27;57.56;100487.25;4993605;28;20053;-71
2023/01/19 11:29:22;;;;;;;0.40;0.40;;;;;;;10.24;58.69;100487.72;4993492;28;20049;-70
2023/01/19 11:31:49;;;;;;;0.30;0.30;;;;;;;10.93;56.32;100488.78;4993532;28;20120;-70
2023/01/19 11:34:25;;;;;;;0.40;0.40;;;;;;;10.29;57.85;100481.66;4993618;28;20045;-73
2023/01/19 11:37:03;;;;;;;0.30;0.30;;;;;;;10.66;57.43;100484.94;4993963;28;20104;-70
2023/01/19 11:39:31;;;;;;;0.45;0.45;;;;;;;10.40;57.52;100495.09;4993300;28;20105;-70
2023/01/19 11:42:02;;;;;;;0.40;0.40;;;;;;;10.43;57.84;100483.91;4993156;28;20034;-70
2023/01/19 11:44:45;;;;;;;0.45;0.45;;;;;;;11.13;56.26;100489.19;4993146;28;20054;-70
2023/01/19 11:47:17;;;;;;;0.40;0.40;;;;;;;10.88;57.19;100491.34;4993208;28;20084;-69
2023/01/19 11:49:54;;;;;;;0.32;0.32;;;;;;;10.74;56.98;100485.41;4991535;28;20050;-73